Time;durP1;ratioP1;P1;durP2;ratioP2;P2;SDS_P1;SDS_P2;PMS_P1;PMS_P2;Temp;Humidity;BMP_temperature;BMP_pressure;BME280_temperature;BME280_humidity;BME280_pressure;Samples;Min_cycle;Max_cycle;Signal;HPM_P1;HPM_P2
2022/06/10 00:00:52;;;;;;;11.88;5.63;;;;;;;-144.47;63.40;53310.94;4980978;28;20045;-70
2022/06/10 00:03:20;;;;;;;13.25;6.50;;;;;;;-144.47;63.19;53328.81;4983158;28;20034;-70
2022/06/10 00:05:48;;;;;;;11.80;5.50;;;;;;;-144.47;63.53;53346.72;5000458;28;20032;-70
2022/06/10 00:08:18;;;;;;;10.40;5.28;;;;;;;-144.47;63.54;53322.88;4999421;28;20372;-69
2022/06/10 00:10:49;;;;;;;12.63;5.57;;;;;;;-144.47;63.12;53308.97;4997816;28;20034;-71
2022/06/10 00:13:15;;;;;;;17.15;6.22;;;;;;;-144.47;63.19;53328.81;4999442;28;20061;-70
2022/06/10 00:15:41;;;;;;;10.52;4.72;;;;;;;-144.47;63.26;53352.66;5000861;28;20502;-70
2022/06/10 00:18:06;;;;;;;15.50;4.97;;;;;;;-144.47;63.02;53320.88;5001275;28;20041;-69
2022/06/10 00:20:32;;;;;;;12.57;5.15;;;;;;;-144.47;62.89;53299.03;4996971;28;20033;-71
2022/06/10 00:22:58;;;;;;;9.63;4.82;;;;;;;-144.47;62.96;53297.03;5001056;28;20226;-69
2022/06/10 00:25:24;;;;;;;10.07;4.90;;;;;;;-144.47;63.00;53368.56;4998433;28;20129;-72
2022/06/10 00:27:50;;;;;;;21.48;4.65;;;;;;;-144.47;62.94;53376.50;5001267;28;20076;-71
2022/06/10 00:30:17;;;;;;;9.80;4.40;;;;;;;-144.47;63.18;53326.84;4997858;28;20017;-70
2022/06/10 00:32:43;;;;;;;7.28;4.35;;;;;;;-144.47;63.03;53352.66;4981703;28;20038;-70
2022/06/10 00:35:09;;;;;;;14.65;4.85;;;;;;;-144.47;63.28;53336.78;5002666;28;20037;-68
2022/06/10 00:37:35;;;;;;;9.38;5.13;;;;;;;-144.47;63.48;53328.81;4986732;28;20080;-71
2022/06/10 00:40:01;;;;;;;10.57;5.15;;;;;;;-144.47;63.70;53310.94;5002219;28;20029;-69
2022/06/10 00:42:27;;;;;;;21.30;5.10;;;;;;;-144.47;63.72;53324.84;5005229;28;20324;-70
2022/06/10 00:44:53;;;;;;;16.95;4.75;;;;;;;-144.47;63.94;53348.69;5004214;28;20048;-71
2022/06/10 00:47:39;;;;;;;11.27;4.60;;;;;;;-144.47;63.85;53346.72;5004787;28;20057;-69
2022/06/10 00:50:27;;;;;;;15.73;4.88;;;;;;;-144.47;63.82;53326.84;5001333;28;20108;-69
2022/06/10 00:52:57;;;;;;;11.48;5.28;;;;;;;-144.47;63.67;53350.69;5005212;28;20191;-69
2022/06/10 00:55:28;;;;;;;10.55;5.55;;;;;;;-144.47;63.91;53336.78;5004853;28;21179;-72
2022/06/10 00:58:00;;;;;;;17.20;5.45;;;;;;;-144.47;63.92;53368.56;4986284;28;20510;-70
2022/06/10 01:00:27;;;;;;;8.90;4.82;;;;;;;-144.47;64.07;53360.63;5002203;28;20090;-69
2022/06/10 01:02:52;;;;;;;14.05;4.50;;;;;;;-144.47;64.17;53328.81;5003937;28;21017;-71
2022/06/10 01:05:21;;;;;;;11.68;5.00;;;;;;;-144.47;64.43;53336.78;5003140;28;20101;-71
2022/06/10 01:08:02;;;;;;;14.90;5.40;;;;;;;-144.47;64.55;53308.97;5003762;28;20100;-69
2022/06/10 01:10:31;;;;;;;14.75;4.13;;;;;;;-144.47;64.35;53338.75;5001148;28;20037;-69
2022/06/10 01:12:56;;;;;;;;;;;;;;;-144.47;64.54;53344.72;5004591;28;20029;-70
2022/06/10 01:15:37;;;;;;;7.97;3.80;;;;;;;-144.47;64.82;53301.03;4985372;28;19967;-71
2022/06/10 01:18:02;;;;;;;9.32;4.45;;;;;;;-144.47;65.00;53364.59;5004045;28;20121;-69
2022/06/10 01:20:40;;;;;;;16.60;4.55;;;;;;;-144.47;65.11;53378.50;4999038;28;20132;-70
2022/06/10 01:23:36;;;;;;;15.48;4.80;;;;;;;-144.47;65.31;53324.84;5002655;28;20060;-71
2022/06/10 01:26:07;;;;;;;10.75;5.22;;;;;;;-144.47;65.30;53328.81;5000717;28;20041;-69
2022/06/10 01:29:20;;;;;;;14.18;4.78;;;;;;;-144.47;65.35;53338.75;5000793;28;20038;-69
2022/06/10 01:32:00;;;;;;;10.68;4.40;;;;;;;-144.47;65.46;53332.81;4919277;29;20047;-70
2022/06/10 01:34:42;;;;;;;8.90;4.78;;;;;;;-144.47;65.63;53328.81;4988845;28;20592;-70
2022/06/10 01:37:15;;;;;;;12.20;4.15;;;;;;;-144.47;65.52;53372.53;4983692;28;20503;-69
2022/06/10 01:40:07;;;;;;;13.38;5.53;;;;;;;-144.47;65.59;53356.63;4980442;28;20137;-70
2022/06/10 01:42:50;;;;;;;13.25;5.55;;;;;;;-144.47;65.30;53336.78;5003218;28;20041;-69
2022/06/10 01:45:39;;;;;;;9.35;4.65;;;;;;;-144.47;65.54;53364.59;5002961;28;20042;-70
2022/06/10 01:48:16;;;;;;;;;;;;;;;-144.47;65.80;53358.63;5006129;28;20327;-70
2022/06/10 01:50:53;;;;;;;14.30;4.85;;;;;;;-144.47;65.71;53328.81;4984581;28;19910;-70
2022/06/10 01:53:31;;;;;;;9.10;4.45;;;;;;;-144.47;65.67;53374.50;5004459;28;20037;-69
2022/06/10 01:56:26;;;;;;;9.32;4.82;;;;;;;-144.47;65.84;53372.53;5004510;28;20037;-71
2022/06/10 01:58:59;;;;;;;7.90;4.15;;;;;;;-144.47;65.83;53346.72;5005967;28;20041;-72
2022/06/10 02:01:35;;;;;;;13.80;4.50;;;;;;;-144.47;65.96;53324.84;4972587;28;20038;-73
2022/06/10 02:04:14;;;;;;;8.55;4.20;;;;;;;-144.47;65.69;53348.69;5006448;28;20060;-70
2022/06/10 02:06:48;;;;;;;;;;;;;;;-144.47;65.88;53360.63;5003978;28;20105;-68
2022/06/10 02:09:19;;;;;;;8.25;4.43;;;;;;;-144.47;65.74;53352.66;5000722;28;19921;-71
2022/06/10 02:11:50;;;;;;;10.90;4.40;;;;;;;-144.47;65.79;53362.59;5007064;28;20029;-70
2022/06/10 02:14:24;;;;;;;12.77;4.72;;;;;;;-144.47;66.03;53344.72;4986204;28;20332;-70
2022/06/10 02:16:50;;;;;;;15.65;5.32;;;;;;;-144.47;66.19;53320.88;5005525;28;20050;-71
2022/06/10 02:19:35;;;;;;;8.07;4.60;;;;;;;-144.47;66.50;53336.78;5003559;28;20538;-71
2022/06/10 02:22:03;;;;;;;12.27;4.88;;;;;;;-144.47;66.70;53336.78;5006546;28;20487;-71
2022/06/10 02:24:37;;;;;;;14.60;4.80;;;;;;;-144.47;66.56;53354.66;5005690;28;20033;-69
2022/06/10 02:27:16;;;;;;;10.10;6.07;;;;;;;-144.47;66.95;53312.94;5006722;28;20061;-68
2022/06/10 02:30:17;;;;;;;13.10;5.07;;;;;;;-144.47;67.04;53342.72;5005988;28;20050;-69
2022/06/10 02:32:43;;;;;;;12.23;4.50;;;;;;;-144.47;67.03;53356.63;4988069;28;20026;-69
2022/06/10 02:35:10;;;;;;;12.55;4.85;;;;;;;-144.47;67.03;53364.59;5004910;28;20033;-69
2022/06/10 02:37:40;;;;;;;7.15;4.40;;;;;;;-144.47;66.70;53340.75;5005391;28;20026;-69
2022/06/10 02:40:18;;;;;;;10.30;4.75;;;;;;;-144.47;66.49;53346.72;5006065;28;20061;-69
2022/06/10 02:43:08;;;;;;;12.25;4.75;;;;;;;-144.47;66.53;53334.78;4993697;28;20075;-70
2022/06/10 02:46:10;;;;;;;18.73;5.38;;;;;;;-144.47;66.49;53382.47;5009736;28;20113;-71
2022/06/10 02:48:52;;;;;;;13.88;4.78;;;;;;;-144.47;66.96;53360.63;5002618;28;20021;-69
2022/06/10 02:51:19;;;;;;;16.10;5.15;;;;;;;-144.47;66.75;53308.97;5008688;28;20535;-69
2022/06/10 02:53:45;;;;;;;10.77;4.75;;;;;;;-144.47;66.49;53374.50;5011044;28;20432;-70
2022/06/10 02:56:23;;;;;;;11.52;5.00;;;;;;;-144.47;66.96;53396.38;5011047;28;20108;-71
2022/06/10 03:01:42;;;;;;;8.82;4.57;;;;;;;-144.47;67.07;53348.69;4991503;28;20067;-72
2022/06/10 03:04:22;;;;;;;10.88;4.90;;;;;;;-144.47;66.75;53330.81;5013574;28;20045;-69
2022/06/10 03:06:59;;;;;;;9.73;4.38;;;;;;;-144.47;66.96;53348.69;5015264;28;20026;-69
2022/06/10 03:09:53;;;;;;;13.90;4.75;;;;;;;-144.47;66.70;53342.72;5014785;28;20133;-71
2022/06/10 03:12:38;;;;;;;14.00;4.82;;;;;;;-144.47;66.83;53342.72;5014684;28;20045;-68
2022/06/10 03:15:48;;;;;;;12.65;4.35;;;;;;;-144.47;66.84;53352.66;4996934;28;20076;-71
2022/06/10 03:19:02;;;;;;;11.20;4.50;;;;;;;-144.47;66.96;53326.84;5010445;28;20472;-70
2022/06/10 03:21:30;;;;;;;14.07;4.88;;;;;;;-144.47;66.82;53342.72;5006830;28;20034;-70
2022/06/10 03:24:15;;;;;;;14.10;5.03;;;;;;;-144.47;66.66;53326.84;5007828;28;20030;-71
2022/06/10 03:26:51;;;;;;;10.07;4.40;;;;;;;-144.47;67.22;53368.56;5004521;28;20052;-71
2022/06/10 03:29:29;;;;;;;12.82;5.28;;;;;;;-144.47;67.05;53352.66;5009449;28;20062;-69
2022/06/10 03:32:00;;;;;;;9.03;4.63;;;;;;;-144.47;67.39;53348.69;4993694;28;20065;-71
2022/06/10 03:34:25;;;;;;;14.90;4.95;;;;;;;-144.47;67.30;53390.41;4992801;28;20259;-70
2022/06/10 03:36:52;;;;;;;10.32;5.03;;;;;;;-144.47;67.15;53314.91;5014676;28;20033;-71
2022/06/10 03:39:21;;;;;;;13.52;4.85;;;;;;;-144.47;67.27;53390.41;5008629;28;20030;-70
2022/06/10 03:41:56;;;;;;;;;;;;;;;-144.47;67.57;53342.72;4992950;28;20030;-71
2022/06/10 03:44:23;;;;;;;7.47;4.28;;;;;;;-144.47;67.36;53358.63;4991623;28;19917;-70
2022/06/10 03:46:51;;;;;;;10.93;4.60;;;;;;;-144.47;67.36;53378.50;5010268;28;20037;-68
2022/06/10 03:49:21;;;;;;;8.13;4.60;;;;;;;-144.47;67.13;53332.81;5009551;28;20337;-71
2022/06/10 03:51:47;;;;;;;23.30;5.57;;;;;;;-144.47;67.16;53354.66;5007980;28;20525;-68
2022/06/10 03:54:18;;;;;;;9.65;5.05;;;;;;;-144.47;67.21;53332.81;5008908;28;20109;-69
2022/06/10 03:56:43;;;;;;;9.80;4.82;;;;;;;-144.47;67.34;53380.47;5008181;28;20484;-68
2022/06/10 03:59:09;;;;;;;10.15;4.55;;;;;;;-144.47;67.09;53360.63;5003312;28;20052;-70
2022/06/10 04:01:35;;;;;;;8.90;4.65;;;;;;;-144.47;67.21;53368.56;5012466;28;20108;-67
2022/06/10 04:04:00;;;;;;;11.10;4.90;;;;;;;-144.47;67.17;53344.72;5011584;28;20485;-70
2022/06/10 04:06:25;;;;;;;10.70;4.65;;;;;;;-144.47;67.20;53354.66;5009000;28;20022;-67
2022/06/10 04:08:51;;;;;;;9.82;4.93;;;;;;;-144.47;67.05;53350.69;5028717;22;20045;-63
2022/06/10 04:11:17;;;;;;;10.82;4.65;;;;;;;-144.47;66.81;53362.59;5028779;28;20021;-66
2022/06/10 04:13:44;;;;;;;12.50;5.07;;;;;;;-144.47;66.56;53312.94;5028246;28;20399;-65
2022/06/10 04:16:10;;;;;;;14.75;4.45;;;;;;;-144.47;66.26;53360.63;5028461;28;20025;-71
2022/06/10 04:18:37;;;;;;;11.73;4.35;;;;;;;-144.47;66.16;53362.59;5021267;28;20018;-66
2022/06/10 04:21:05;;;;;;;12.40;4.72;;;;;;;-144.47;66.04;53334.78;4992797;28;20030;-66
2022/06/10 04:23:32;;;;;;;12.52;4.70;;;;;;;-144.47;66.04;53392.41;5009107;28;20025;-64
2022/06/10 04:25:58;;;;;;;9.65;4.40;;;;;;;-144.47;65.96;53332.81;5008290;28;20026;-68
2022/06/10 04:28:23;;;;;;;9.35;4.28;;;;;;;-144.47;66.19;53374.50;5013841;28;20029;-67
2022/06/10 04:30:51;;;;;;;7.68;3.72;;;;;;;-144.47;66.38;53332.81;5008025;28;20460;-68
2022/06/10 04:33:17;;;;;;;8.52;4.53;;;;;;;-144.47;66.27;53376.50;5003553;28;20030;-66
2022/06/10 04:35:44;;;;;;;8.77;4.55;;;;;;;-144.47;66.51;53312.94;5005653;28;20121;-66
2022/06/10 04:38:13;;;;;;;9.30;4.13;;;;;;;-144.47;66.32;53334.78;5008834;28;20464;-67
2022/06/10 04:40:39;;;;;;;;;;;;;;;-144.47;66.16;53303.00;4986514;28;20071;-66
2022/06/10 04:43:06;;;;;;;8.85;3.95;;;;;;;-144.47;66.19;53372.53;5008838;28;19909;-66
2022/06/10 04:45:40;;;;;;;10.55;4.57;;;;;;;-144.47;66.30;53332.81;5008368;28;20208;-66
2022/06/10 04:48:05;;;;;;;15.25;4.47;;;;;;;-144.47;66.05;53372.53;5008330;28;20022;-63
2022/06/10 04:50:31;;;;;;;10.07;3.92;;;;;;;-144.47;66.09;53402.31;5006742;28;20542;-66
2022/06/10 04:52:57;;;;;;;6.53;3.83;;;;;;;-144.47;65.68;53350.69;5010255;28;20030;-67
2022/06/10 04:55:25;;;;;;;9.57;4.03;;;;;;;-144.47;65.81;53360.63;4990871;28;20080;-65
2022/06/10 04:57:53;;;;;;;9.68;4.32;;;;;;;-144.47;65.63;53388.41;5007749;28;20119;-65
2022/06/10 05:00:28;;;;;;;10.88;4.82;;;;;;;-144.47;65.14;53314.91;4989221;28;20404;-65
2022/06/10 05:02:53;;;;;;;11.63;4.38;;;;;;;-144.47;65.07;53370.53;5008409;28;20030;-65
2022/06/10 05:05:20;;;;;;;9.23;4.38;;;;;;;-144.47;64.70;53344.72;4990100;28;20096;-66
2022/06/10 05:07:45;;;;;;;6.22;3.83;;;;;;;-144.47;64.72;53344.72;5007951;28;20486;-66
2022/06/10 05:10:13;;;;;;;10.48;4.32;;;;;;;-144.47;64.42;53346.72;5007450;28;20034;-68
2022/06/10 05:12:39;;;;;;;8.65;4.55;;;;;;;-144.47;64.22;53364.59;5009317;28;20352;-66
2022/06/10 05:15:04;;;;;;;6.20;4.00;;;;;;;-144.47;64.25;53352.66;5008585;28;20495;-66
2022/06/10 05:17:30;;;;;;;12.98;4.50;;;;;;;-144.47;64.02;53372.53;5011374;28;20113;-68
2022/06/10 05:19:55;;;;;;;10.85;4.05;;;;;;;-144.47;63.58;53340.75;5011163;28;20025;-68
2022/06/10 05:22:21;;;;;;;10.93;4.38;;;;;;;-144.47;63.69;53410.28;5011898;28;20057;-67
2022/06/10 05:24:46;;;;;;;12.45;4.38;;;;;;;-144.47;63.63;53326.84;5009801;28;20018;-64
2022/06/10 05:27:12;;;;;;;15.65;3.67;;;;;;;-144.47;63.59;53370.53;5011983;28;20113;-70
2022/06/10 05:29:37;;;;;;;7.95;4.07;;;;;;;-144.47;63.37;53344.72;4992933;28;20463;-67
2022/06/10 05:32:04;;;;;;;8.65;3.60;;;;;;;-144.47;63.32;53350.69;5012900;28;20030;-66
2022/06/10 05:34:44;;;;;;;6.30;3.53;;;;;;;-144.47;63.33;53312.94;5006843;28;20372;-66
2022/06/10 05:37:12;;;;;;;16.15;4.40;;;;;;;-144.47;63.41;53334.78;5012623;28;20018;-66
2022/06/10 05:39:37;;;;;;;10.63;3.70;;;;;;;-144.47;63.06;53348.69;5012192;28;20034;-73
2022/06/10 05:42:06;;;;;;;9.05;3.13;;;;;;;-144.47;63.05;53289.09;5013139;28;20032;-66
2022/06/10 05:44:33;;;;;;;5.90;3.10;;;;;;;-144.47;62.48;53348.69;5012766;28;20560;-68
2022/06/10 05:47:00;;;;;;;10.00;3.78;;;;;;;-144.47;62.08;53312.94;5014144;28;20053;-65
2022/06/10 05:49:27;;;;;;;7.13;3.90;;;;;;;-144.47;61.41;53318.91;5013295;28;20554;-68
2022/06/10 05:51:52;;;;;;;7.00;4.00;;;;;;;-144.47;61.10;53324.84;5012205;28;20026;-67
2022/06/10 05:54:18;;;;;;;8.63;3.83;;;;;;;-144.47;60.85;53326.84;5013194;28;20044;-66
2022/06/10 05:56:44;;;;;;;10.07;3.20;;;;;;;-144.47;60.76;53303.00;5011797;28;20026;-67
2022/06/10 05:59:10;;;;;;;8.82;3.47;;;;;;;-144.47;60.84;53287.13;5010178;28;20022;-66
2022/06/10 06:01:36;;;;;;;8.18;3.38;;;;;;;-144.47;60.90;53378.50;5011560;28;20040;-65
2022/06/10 06:04:02;;;;;;;9.93;3.83;;;;;;;-144.47;60.92;53320.88;5011403;28;20056;-67
2022/06/10 06:06:27;;;;;;;8.32;3.80;;;;;;;-144.47;61.29;53342.72;5011054;28;20112;-65
2022/06/10 06:08:53;;;;;;;8.52;3.88;;;;;;;-144.47;61.21;53291.09;5011020;28;20142;-64
2022/06/10 06:11:18;;;;;;;12.32;4.55;;;;;;;-144.47;61.11;53318.91;5002624;28;20029;-65
2022/06/10 06:13:44;;;;;;;10.15;3.58;;;;;;;-144.47;60.80;53348.69;5000419;28;20141;-66
2022/06/10 06:16:13;;;;;;;6.80;3.28;;;;;;;-144.47;60.52;53326.84;5003824;28;20030;-66
2022/06/10 06:18:38;;;;;;;8.10;3.67;;;;;;;-144.47;59.92;53318.91;5003932;28;20840;-71
2022/06/10 06:21:05;;;;;;;7.72;3.47;;;;;;;-144.47;59.28;53308.97;5004563;28;20046;-67
2022/06/10 06:23:30;;;;;;;7.70;3.47;;;;;;;-144.47;58.74;53295.06;5003845;28;20030;-66
2022/06/10 06:25:56;;;;;;;16.83;4.13;;;;;;;-144.47;58.56;53320.88;5004158;28;20107;-65
2022/06/10 06:28:21;;;;;;;10.65;3.47;;;;;;;-144.47;58.41;53336.78;5002793;28;20026;-66
2022/06/10 06:30:46;;;;;;;12.82;3.35;;;;;;;-144.47;58.15;53303.00;5002679;28;20030;-67
2022/06/10 06:33:12;;;;;;;8.88;3.95;;;;;;;-144.47;57.98;53293.06;5004812;28;20053;-65
2022/06/10 06:35:39;;;;;;;8.80;3.00;;;;;;;-144.47;57.49;53308.97;5002590;28;20060;-66
2022/06/10 06:38:05;;;;;;;9.48;3.90;;;;;;;-144.47;58.14;53289.09;5003979;28;20042;-70
2022/06/10 06:40:31;;;;;;;7.45;3.58;;;;;;;-144.47;58.16;53310.94;5003371;28;20065;-67
2022/06/10 06:42:56;;;;;;;9.70;2.83;;;;;;;-144.47;58.26;53305.00;5004544;28;20090;-65
2022/06/10 06:45:23;;;;;;;10.23;3.13;;;;;;;-144.47;58.32;53293.06;5002991;28;20595;-68
2022/06/10 06:47:51;;;;;;;11.90;3.58;;;;;;;-144.47;58.49;53303.00;5005782;28;20036;-66
2022/06/10 06:50:19;;;;;;;6.78;3.17;;;;;;;-144.47;58.02;53326.84;5005222;28;20034;-67
2022/06/10 06:52:44;;;;;;;11.52;3.40;;;;;;;-144.47;58.50;53316.91;5004050;28;20030;-65
2022/06/10 06:55:10;;;;;;;10.10;3.78;;;;;;;-144.47;58.28;53247.38;5003530;28;20044;-65
2022/06/10 06:57:36;;;;;;;8.82;3.10;;;;;;;-144.47;57.12;53301.03;5003268;28;20034;-67
2022/06/10 07:00:08;;;;;;;14.15;3.10;;;;;;;-144.47;56.76;53324.84;5002912;28;20503;-65
2022/06/10 07:02:36;;;;;;;5.90;2.55;;;;;;;-144.47;56.46;53285.13;4985930;28;20366;-67
2022/06/10 07:05:02;;;;;;;14.15;3.58;;;;;;;-144.47;56.34;53316.91;5001407;28;20113;-67
2022/06/10 07:07:27;;;;;;;7.53;2.85;;;;;;;-144.47;55.91;53275.19;5003122;28;20032;-67
2022/06/10 07:09:53;;;;;;;7.18;2.50;;;;;;;-144.47;55.90;53324.84;5003096;28;20345;-64
2022/06/10 07:12:18;;;;;;;10.00;2.72;;;;;;;-144.47;56.06;53305.00;4985158;28;20033;-66
2022/06/10 07:14:44;;;;;;;11.27;3.03;;;;;;;-144.47;55.82;53279.16;5001859;28;20705;-67
2022/06/10 07:17:11;;;;;;;9.38;2.50;;;;;;;-144.47;55.77;53293.06;5003919;28;20384;-66
2022/06/10 07:19:37;;;;;;;11.18;2.47;;;;;;;-144.47;55.87;53239.44;5002343;28;20030;-66
2022/06/10 07:22:04;;;;;;;9.90;2.60;;;;;;;-144.47;55.47;53312.94;5002927;28;20045;-65
2022/06/10 07:24:29;;;;;;;11.02;3.45;;;;;;;-144.47;55.38;53281.16;5000361;28;20034;-66
2022/06/10 07:26:55;;;;;;;12.82;3.20;;;;;;;-144.47;55.33;53281.16;5002690;28;20104;-66
2022/06/10 07:29:20;;;;;;;9.73;2.85;;;;;;;-144.47;54.88;53283.13;4985230;28;20044;-66
2022/06/10 07:31:46;;;;;;;13.32;3.17;;;;;;;-144.47;54.79;53318.91;5004653;28;20018;-65
2022/06/10 07:34:11;;;;;;;12.88;2.83;;;;;;;-144.47;54.54;53259.31;5001445;28;20040;-68
2022/06/10 07:36:39;;;;;;;9.90;2.75;;;;;;;-144.47;54.38;53285.13;5003611;28;20029;-66
2022/06/10 07:39:04;;;;;;;10.07;2.83;;;;;;;-144.47;54.25;53283.13;5002133;28;20287;-68
2022/06/10 07:44:14;;;;;;;8.57;2.70;;;;;;;-144.47;53.97;53297.03;5001720;28;20509;-67
2022/06/10 07:46:40;;;;;;;8.07;3.80;;;;;;;-144.47;53.63;53295.06;5003120;28;20045;-66
2022/06/10 07:49:05;;;;;;;9.02;2.80;;;;;;;-144.47;53.64;53277.19;4984113;28;20822;-66
2022/06/10 07:51:31;;;;;;;16.42;7.28;;;;;;;-144.47;53.50;53305.00;5002962;28;20097;-64
2022/06/10 07:53:56;;;;;;;10.85;2.55;;;;;;;-144.47;53.38;53303.00;5001580;28;20022;-68
2022/06/10 07:56:22;;;;;;;12.35;3.13;;;;;;;-144.47;53.21;53271.22;5002668;28;20045;-68
2022/06/10 07:58:49;;;;;;;9.63;3.50;;;;;;;-144.47;53.08;53279.16;4999941;28;20084;-66
2022/06/10 08:01:15;;;;;;;11.25;3.13;;;;;;;-144.47;52.48;53283.13;5003260;28;20088;-66
2022/06/10 08:03:40;;;;;;;7.95;3.22;;;;;;;-144.47;51.70;53293.06;5001107;28;20038;-65
2022/06/10 08:06:06;;;;;;;10.35;2.60;;;;;;;-144.47;51.93;53281.16;5002816;28;20096;-66
2022/06/10 08:08:31;;;;;;;7.22;2.90;;;;;;;-144.47;51.75;53318.91;5000681;28;20049;-66
2022/06/10 08:10:57;;;;;;;11.60;3.40;;;;;;;-144.47;51.87;53277.19;5002606;28;20025;-66
2022/06/10 08:13:23;;;;;;;7.15;3.10;;;;;;;-144.47;51.74;53221.56;5002438;28;20088;-66
2022/06/10 08:15:48;;;;;;;8.18;2.90;;;;;;;-144.47;51.43;53281.16;5000733;28;20080;-65
2022/06/10 08:18:16;;;;;;;6.18;2.83;;;;;;;-144.47;51.15;53253.34;5002798;28;20466;-65
2022/06/10 08:23:28;;;;;;;12.25;2.72;;;;;;;-144.47;50.38;53279.16;5001045;28;20117;-67
2022/06/10 08:25:55;;;;;;;5.47;2.25;;;;;;;-144.47;50.31;53308.97;5002319;28;20104;-65
2022/06/10 08:28:22;;;;;;;10.40;3.08;;;;;;;-144.47;50.60;53263.28;5003402;28;20463;-65
2022/06/10 08:30:47;;;;;;;6.43;2.65;;;;;;;-144.47;50.13;53231.50;5001861;28;20483;-67
2022/06/10 08:33:13;;;;;;;9.07;3.33;;;;;;;-144.47;48.81;53277.19;5002915;28;20092;-64
2022/06/10 08:35:39;;;;;;;12.10;3.33;;;;;;;-144.47;49.03;53253.34;5001193;28;20057;-67
2022/06/10 08:38:08;;;;;;;9.52;3.15;;;;;;;-144.47;48.82;53231.50;4985594;28;20034;-66
2022/06/10 08:40:59;;;;;;;12.10;3.10;;;;;;;-144.47;47.68;53247.38;5000356;28;20087;-65
2022/06/10 08:43:45;;;;;;;8.45;2.80;;;;;;;-144.47;48.10;53265.25;4999799;28;20029;-66
2022/06/10 08:46:34;;;;;;;7.75;2.72;;;;;;;-144.47;46.94;53221.56;5002714;28;20669;-64
2022/06/10 08:49:22;;;;;;;11.25;3.25;;;;;;;-144.47;46.70;53245.41;4997411;28;20038;-65
2022/06/10 08:51:53;;;;;;;12.02;2.97;;;;;;;-144.47;46.35;53201.69;4995457;28;21078;-65
2022/06/10 08:54:43;;;;;;;5.80;2.50;;;;;;;-144.47;45.22;53233.47;4998995;28;20112;-64
2022/06/10 08:57:36;;;;;;;8.45;4.70;;;;;;;-144.47;45.80;53241.44;5002890;28;20069;-66
2022/06/10 09:00:15;;;;;;;15.98;4.97;;;;;;;-144.47;46.26;53259.31;4998044;28;20053;-66
2022/06/10 09:02:52;;;;;;;16.77;6.00;;;;;;;-144.47;46.74;53213.63;4999639;28;20034;-66
2022/06/10 09:05:21;;;;;;;15.02;5.60;;;;;;;-144.47;46.61;53229.50;4996089;28;20028;-64
2022/06/10 09:07:49;;;;;;;;;;;;;;;-144.47;45.74;53259.31;5003476;28;20059;-64
2022/06/10 09:10:30;;;;;;;16.88;7.65;;;;;;;-144.47;45.44;53245.41;4997682;28;20306;-65
2022/06/10 09:13:01;;;;;;;10.30;6.65;;;;;;;-144.47;45.91;53253.34;5000648;28;20573;-66
2022/06/10 09:15:30;;;;;;;13.32;7.70;;;;;;;-144.47;46.13;53239.44;5000183;28;20030;-66
2022/06/10 09:18:04;;;;;;;14.40;7.80;;;;;;;-144.47;46.00;53229.50;5004018;28;20054;-66
2022/06/10 09:20:48;;;;;;;15.10;7.22;;;;;;;-144.47;45.80;53225.53;5007516;28;20136;-64
2022/06/10 09:23:38;;;;;;;14.73;7.15;;;;;;;-144.47;44.87;53227.53;4991099;28;20373;-64
2022/06/10 09:26:10;;;;;;;12.18;6.68;;;;;;;-144.47;44.34;53241.44;5006189;28;20029;-66
2022/06/10 09:28:37;;;;;;;16.05;6.97;;;;;;;-144.47;43.89;53215.59;5006931;28;20018;-65
2022/06/10 09:31:13;;;;;;;17.73;5.55;;;;;;;-144.47;43.44;53245.41;5009720;28;20036;-68
2022/06/10 09:34:10;;;;;;;10.05;3.45;;;;;;;-144.47;41.83;53237.44;5001131;28;20070;-67
2022/06/10 09:36:50;;;;;;;7.60;2.97;;;;;;;-144.47;42.44;53221.56;4978044;28;20084;-68
2022/06/10 09:42:30;;;;;;;8.82;2.88;;;;;;;-144.47;42.27;53203.69;5008903;28;20411;-69
2022/06/10 09:45:43;;;;;;;17.65;2.95;;;;;;;-144.47;42.54;53187.78;5009095;28;20057;-70
2022/06/10 09:48:23;;;;;;;4.32;1.85;;;;;;;-144.47;41.43;53245.41;5005563;28;20296;-67
2022/06/10 09:51:16;;;;;;;10.60;2.33;;;;;;;-144.47;41.48;53213.63;5007725;28;20057;-68
2022/06/10 09:54:22;;;;;;;9.32;2.33;;;;;;;-144.47;41.27;53181.84;5008469;28;20062;-67
2022/06/10 09:56:50;;;;;;;7.68;2.95;;;;;;;-144.47;41.47;53205.66;4977012;28;20042;-66
2022/06/10 09:59:25;;;;;;;10.95;2.22;;;;;;;-144.47;42.03;53225.53;5006641;28;20101;-68
2022/06/10 10:02:28;;;;;;;7.90;1.95;;;;;;;-144.47;40.45;53217.59;4996094;28;20057;-66
2022/06/10 10:05:01;;;;;;;6.15;2.30;;;;;;;-144.47;40.20;53203.69;5011109;28;20491;-65
2022/06/10 10:07:47;;;;;;;10.93;2.30;;;;;;;-144.47;40.13;53229.50;5011546;28;20034;-69
2022/06/10 10:10:17;;;;;;;16.83;2.28;;;;;;;-144.47;40.13;53207.66;5066659;22;20516;-67
2022/06/10 10:13:26;;;;;;;6.18;2.20;;;;;;;-144.47;40.28;53221.56;5050500;28;20025;-70
2022/06/10 10:16:31;;;;;;;13.55;1.70;;;;;;;-144.47;37.91;53233.47;5032720;28;20112;-69
2022/06/10 10:19:15;;;;;;;13.23;2.45;;;;;;;-144.47;38.59;53221.56;5029694;28;20057;-68
2022/06/10 10:22:17;;;;;;;7.63;1.55;;;;;;;-144.47;38.42;53213.63;5050320;28;20056;-70
2022/06/10 10:24:45;;;;;;;10.05;2.38;;;;;;;-144.47;38.61;53201.69;5031705;28;20028;-67
2022/06/10 10:27:28;;;;;;;5.55;1.92;;;;;;;-144.47;38.49;53185.81;5032418;28;20033;-69
2022/06/10 10:30:04;;;;;;;12.13;2.10;;;;;;;-144.47;36.43;53191.78;5050223;28;20036;-70
2022/06/10 10:32:36;;;;;;;6.88;1.73;;;;;;;-144.47;35.29;53205.66;5051075;28;20024;-70
2022/06/10 10:35:16;;;;;;;4.53;1.60;;;;;;;-144.47;36.42;53158.00;5049846;28;20472;-69
2022/06/10 10:37:52;;;;;;;6.80;1.65;;;;;;;-144.47;36.28;53169.91;5039811;28;20040;-70
2022/06/10 10:40:21;;;;;;;6.85;2.00;;;;;;;-144.47;37.01;53203.69;5045957;28;20026;-69
2022/06/10 10:42:49;;;;;;;4.93;1.60;;;;;;;-144.47;36.85;53213.63;5050744;28;20551;-70
2022/06/10 10:45:20;;;;;;;5.28;1.55;;;;;;;-144.47;35.64;53211.63;5051103;28;20045;-70
2022/06/10 10:47:58;;;;;;;7.88;1.92;;;;;;;-144.47;36.15;53197.72;5054204;28;20071;-69
2022/06/10 10:50:31;;;;;;;6.97;1.80;;;;;;;-144.47;36.55;53179.84;5056849;28;20037;-71
2022/06/10 10:52:57;;;;;;;9.88;2.38;;;;;;;-144.47;35.64;53195.75;5058091;28;20132;-71
2022/06/10 10:55:37;;;;;;;7.57;2.30;;;;;;;-144.47;35.54;53179.84;5051352;28;20020;-71
2022/06/10 10:58:02;;;;;;;6.38;1.83;;;;;;;-144.47;35.32;53142.09;5046757;28;20025;-70
2022/06/10 11:00:36;;;;;;;7.97;2.15;;;;;;;-144.47;35.38;53154.03;5029509;28;20090;-70
2022/06/10 11:03:03;;;;;;;4.72;1.55;;;;;;;-144.47;35.59;53219.56;5046694;28;20025;-70
2022/06/10 11:05:36;;;;;;;9.10;1.83;;;;;;;-144.47;35.25;53197.72;5056262;28;20167;-70
2022/06/10 11:08:19;;;;;;;6.85;1.65;;;;;;;-144.47;34.71;53171.91;5046897;28;20025;-68
2022/06/10 11:11:03;;;;;;;9.20;1.98;;;;;;;-144.47;34.74;53173.88;5049060;28;20052;-70
2022/06/10 11:13:34;;;;;;;5.00;1.50;;;;;;;-144.47;34.70;53142.09;5046759;28;20449;-68
2022/06/10 11:16:27;;;;;;;8.98;2.28;;;;;;;-144.47;35.54;53163.97;5058616;28;20028;-72
2022/06/10 11:19:10;;;;;;;6.85;2.10;;;;;;;-144.47;35.96;53205.66;5045478;28;20060;-72
2022/06/10 11:21:51;;;;;;;11.60;2.67;;;;;;;-144.47;36.01;53193.75;5036281;28;20040;-71
2022/06/10 11:24:22;;;;;;;5.45;1.98;;;;;;;-144.47;35.03;53146.09;5046774;28;20017;-69
2022/06/10 11:26:51;;;;;;;7.80;2.63;;;;;;;-144.47;35.21;53175.88;5052286;28;20446;-69
2022/06/10 11:29:17;;;;;;;14.07;2.95;;;;;;;-144.47;35.21;53175.88;5055389;28;20021;-70
2022/06/10 11:31:50;;;;;;;9.13;2.13;;;;;;;-144.47;35.81;53160.00;5049873;28;20039;-71
2022/06/10 11:34:28;;;;;;;9.15;1.80;;;;;;;-144.47;35.78;53193.75;5039935;28;20037;-70
2022/06/10 11:36:55;;;;;;;12.00;2.00;;;;;;;-144.47;35.55;53205.66;5030994;28;20033;-69
2022/06/10 11:39:28;;;;;;;10.82;1.67;;;;;;;-144.47;35.09;53181.84;5052084;28;20135;-70
2022/06/10 11:42:08;;;;;;;7.18;1.83;;;;;;;-144.47;34.42;53195.75;5025386;28;20033;-68
2022/06/10 11:44:43;;;;;;;4.95;1.60;;;;;;;-144.47;34.51;53199.72;5047428;28;20032;-68
2022/06/10 11:47:27;;;;;;;6.15;1.45;;;;;;;-144.47;34.44;53173.88;5039719;28;20331;-71
2022/06/10 11:50:32;;;;;;;5.05;1.70;;;;;;;-144.47;33.81;53171.91;5051084;28;20029;-71